sensor_id;sensor_type;location;lat;lon;timestamp;P1;durP1;ratioP1;P2;durP2;ratioP2
14817;SDS011;7500;57.698;11.986;2022-12-08T00:01:25;8.50;;;4.97;;
14817;SDS011;7500;57.698;11.986;2022-12-08T00:03:54;5.83;;;4.37;;
14817;SDS011;7500;57.698;11.986;2022-12-08T00:06:24;11.23;;;5.53;;
14817;SDS011;7500;57.698;11.986;2022-12-08T00:09:11;7.27;;;4.70;;
14817;SDS011;7500;57.698;11.986;2022-12-08T00:11:49;7.57;;;4.27;;
14817;SDS011;7500;57.698;11.986;2022-12-08T00:14:19;11.13;;;5.20;;
14817;SDS011;7500;57.698;11.986;2022-12-08T00:16:48;7.40;;;4.50;;
14817;SDS011;7500;57.698;11.986;2022-12-08T00:19:15;7.23;;;4.83;;
14817;SDS011;7500;57.698;11.986;2022-12-08T00:21:42;7.93;;;4.00;;
14817;SDS011;7500;57.698;11.986;2022-12-08T00:24:09;7.90;;;4.70;;
14817;SDS011;7500;57.698;11.986;2022-12-08T00:26:36;6.57;;;4.43;;
14817;SDS011;7500;57.698;11.986;2022-12-08T00:29:03;12.27;;;5.17;;
14817;SDS011;7500;57.698;11.986;2022-12-08T00:31:32;8.13;;;4.53;;
14817;SDS011;7500;57.698;11.986;2022-12-08T00:33:59;9.07;;;4.00;;
14817;SDS011;7500;57.698;11.986;2022-12-08T00:36:26;8.90;;;4.20;;
14817;SDS011;7500;57.698;11.986;2022-12-08T00:38:53;9.27;;;4.50;;
14817;SDS011;7500;57.698;11.986;2022-12-08T00:41:21;8.27;;;4.40;;
14817;SDS011;7500;57.698;11.986;2022-12-08T00:44:09;5.73;;;3.80;;
14817;SDS011;7500;57.698;11.986;2022-12-08T00:46:40;6.47;;;4.03;;
14817;SDS011;7500;57.698;11.986;2022-12-08T00:49:07;6.20;;;4.00;;
14817;SDS011;7500;57.698;11.986;2022-12-08T00:51:34;8.20;;;4.43;;
14817;SDS011;7500;57.698;11.986;2022-12-08T00:54:01;7.20;;;4.10;;
14817;SDS011;7500;57.698;11.986;2022-12-08T00:56:28;9.60;;;4.23;;
14817;SDS011;7500;57.698;11.986;2022-12-08T00:58:55;7.03;;;3.93;;
14817;SDS011;7500;57.698;11.986;2022-12-08T01:01:22;7.03;;;4.30;;
14817;SDS011;7500;57.698;11.986;2022-12-08T01:03:51;8.33;;;3.80;;
14817;SDS011;7500;57.698;11.986;2022-12-08T01:06:18;7.73;;;4.30;;
14817;SDS011;7500;57.698;11.986;2022-12-08T01:08:45;5.47;;;3.30;;
14817;SDS011;7500;57.698;11.986;2022-12-08T01:11:13;6.50;;;3.40;;
14817;SDS011;7500;57.698;11.986;2022-12-08T01:13:41;6.10;;;3.27;;
14817;SDS011;7500;57.698;11.986;2022-12-08T01:16:09;7.13;;;3.50;;
14817;SDS011;7500;57.698;11.986;2022-12-08T01:18:43;6.63;;;2.90;;
14817;SDS011;7500;57.698;11.986;2022-12-08T01:21:12;7.93;;;3.77;;
14817;SDS011;7500;57.698;11.986;2022-12-08T01:23:39;6.13;;;3.47;;
14817;SDS011;7500;57.698;11.986;2022-12-08T01:26:07;5.53;;;3.10;;
14817;SDS011;7500;57.698;11.986;2022-12-08T01:28:37;5.30;;;2.63;;
14817;SDS011;7500;57.698;11.986;2022-12-08T01:31:08;4.83;;;2.60;;
14817;SDS011;7500;57.698;11.986;2022-12-08T01:33:37;4.63;;;3.10;;
14817;SDS011;7500;57.698;11.986;2022-12-08T01:36:04;7.03;;;2.60;;
14817;SDS011;7500;57.698;11.986;2022-12-08T01:38:33;4.13;;;2.10;;
14817;SDS011;7500;57.698;11.986;2022-12-08T01:41:00;4.63;;;2.40;;
14817;SDS011;7500;57.698;11.986;2022-12-08T01:43:42;4.53;;;2.43;;
14817;SDS011;7500;57.698;11.986;2022-12-08T01:46:19;4.63;;;2.50;;
14817;SDS011;7500;57.698;11.986;2022-12-08T01:48:46;5.63;;;2.77;;
14817;SDS011;7500;57.698;11.986;2022-12-08T01:51:14;4.23;;;2.50;;
14817;SDS011;7500;57.698;11.986;2022-12-08T01:53:43;4.40;;;2.40;;
14817;SDS011;7500;57.698;11.986;2022-12-08T01:56:11;4.47;;;2.63;;
14817;SDS011;7500;57.698;11.986;2022-12-08T01:58:46;4.23;;;2.60;;
14817;SDS011;7500;57.698;11.986;2022-12-08T02:01:14;6.10;;;2.50;;
14817;SDS011;7500;57.698;11.986;2022-12-08T02:03:42;3.97;;;2.40;;
14817;SDS011;7500;57.698;11.986;2022-12-08T02:06:13;5.13;;;2.03;;
14817;SDS011;7500;57.698;11.986;2022-12-08T02:08:43;3.87;;;2.33;;
14817;SDS011;7500;57.698;11.986;2022-12-08T02:11:12;2.90;;;2.20;;
14817;SDS011;7500;57.698;11.986;2022-12-08T02:13:39;4.33;;;2.00;;
14817;SDS011;7500;57.698;11.986;2022-12-08T02:16:09;5.07;;;2.30;;
14817;SDS011;7500;57.698;11.986;2022-12-08T02:18:45;4.07;;;2.10;;
14817;SDS011;7500;57.698;11.986;2022-12-08T02:21:21;4.23;;;2.13;;
14817;SDS011;7500;57.698;11.986;2022-12-08T02:23:56;5.87;;;2.10;;
14817;SDS011;7500;57.698;11.986;2022-12-08T02:26:46;2.53;;;1.67;;
14817;SDS011;7500;57.698;11.986;2022-12-08T02:32:42;3.43;;;2.13;;
14817;SDS011;7500;57.698;11.986;2022-12-08T02:35:29;3.30;;;1.90;;
14817;SDS011;7500;57.698;11.986;2022-12-08T02:38:03;5.17;;;1.80;;
14817;SDS011;7500;57.698;11.986;2022-12-08T02:40:36;4.30;;;1.90;;
14817;SDS011;7500;57.698;11.986;2022-12-08T02:43:07;3.40;;;2.00;;
14817;SDS011;7500;57.698;11.986;2022-12-08T02:45:40;5.03;;;1.80;;
14817;SDS011;7500;57.698;11.986;2022-12-08T02:48:13;3.53;;;1.50;;
14817;SDS011;7500;57.698;11.986;2022-12-08T02:50:42;2.93;;;1.50;;
14817;SDS011;7500;57.698;11.986;2022-12-08T02:53:09;3.67;;;1.70;;
14817;SDS011;7500;57.698;11.986;2022-12-08T02:55:38;4.40;;;1.70;;
14817;SDS011;7500;57.698;11.986;2022-12-08T02:58:26;2.97;;;1.43;;
14817;SDS011;7500;57.698;11.986;2022-12-08T03:01:10;3.20;;;1.37;;
14817;SDS011;7500;57.698;11.986;2022-12-08T03:03:50;3.63;;;1.70;;
14817;SDS011;7500;57.698;11.986;2022-12-08T03:06:29;2.50;;;1.37;;
14817;SDS011;7500;57.698;11.986;2022-12-08T03:09:02;2.90;;;1.80;;
14817;SDS011;7500;57.698;11.986;2022-12-08T03:11:37;3.67;;;1.20;;
14817;SDS011;7500;57.698;11.986;2022-12-08T03:14:13;2.27;;;1.20;;
14817;SDS011;7500;57.698;11.986;2022-12-08T03:16:43;1.57;;;1.20;;
14817;SDS011;7500;57.698;11.986;2022-12-08T03:19:14;3.53;;;1.80;;
14817;SDS011;7500;57.698;11.986;2022-12-08T03:21:45;3.53;;;1.60;;
14817;SDS011;7500;57.698;11.986;2022-12-08T03:24:16;2.57;;;1.47;;
14817;SDS011;7500;57.698;11.986;2022-12-08T03:26:47;2.17;;;1.27;;
14817;SDS011;7500;57.698;11.986;2022-12-08T03:29:17;1.23;;;1.03;;
14817;SDS011;7500;57.698;11.986;2022-12-08T03:31:50;3.27;;;1.40;;
14817;SDS011;7500;57.698;11.986;2022-12-08T03:34:21;2.83;;;1.60;;
14817;SDS011;7500;57.698;11.986;2022-12-08T03:36:52;2.90;;;1.60;;
14817;SDS011;7500;57.698;11.986;2022-12-08T03:39:26;3.43;;;1.57;;
14817;SDS011;7500;57.698;11.986;2022-12-08T03:41:53;3.30;;;1.27;;
14817;SDS011;7500;57.698;11.986;2022-12-08T03:44:19;1.80;;;1.50;;
14817;SDS011;7500;57.698;11.986;2022-12-08T03:46:46;4.37;;;1.30;;
14817;SDS011;7500;57.698;11.986;2022-12-08T03:49:13;2.07;;;1.10;;
14817;SDS011;7500;57.698;11.986;2022-12-08T03:51:40;2.37;;;1.40;;
14817;SDS011;7500;57.698;11.986;2022-12-08T03:54:09;1.80;;;1.20;;
14817;SDS011;7500;57.698;11.986;2022-12-08T03:56:36;1.60;;;1.30;;
14817;SDS011;7500;57.698;11.986;2022-12-08T03:59:04;1.77;;;1.17;;
14817;SDS011;7500;57.698;11.986;2022-12-08T04:01:31;2.10;;;1.23;;
14817;SDS011;7500;57.698;11.986;2022-12-08T04:03:58;1.43;;;1.20;;
14817;SDS011;7500;57.698;11.986;2022-12-08T04:06:25;1.97;;;1.50;;
14817;SDS011;7500;57.698;11.986;2022-12-08T04:08:52;2.73;;;1.43;;
14817;SDS011;7500;57.698;11.986;2022-12-08T04:11:20;2.97;;;1.50;;
14817;SDS011;7500;57.698;11.986;2022-12-08T04:13:47;1.93;;;1.13;;
14817;SDS011;7500;57.698;11.986;2022-12-08T04:16:15;3.60;;;1.80;;
14817;SDS011;7500;57.698;11.986;2022-12-08T04:18:44;1.90;;;1.30;;
14817;SDS011;7500;57.698;11.986;2022-12-08T04:21:11;2.07;;;1.40;;
14817;SDS011;7500;57.698;11.986;2022-12-08T04:23:38;2.03;;;1.70;;
14817;SDS011;7500;57.698;11.986;2022-12-08T04:26:05;1.60;;;1.17;;
14817;SDS011;7500;57.698;11.986;2022-12-08T04:28:34;2.67;;;1.50;;
14817;SDS011;7500;57.698;11.986;2022-12-08T04:31:01;1.70;;;1.50;;
14817;SDS011;7500;57.698;11.986;2022-12-08T04:33:28;2.17;;;1.60;;
14817;SDS011;7500;57.698;11.986;2022-12-08T04:35:55;2.17;;;1.30;;
14817;SDS011;7500;57.698;11.986;2022-12-08T04:38:22;2.53;;;1.50;;
14817;SDS011;7500;57.698;11.986;2022-12-08T04:40:50;2.93;;;1.50;;
14817;SDS011;7500;57.698;11.986;2022-12-08T04:43:17;2.17;;;1.50;;
14817;SDS011;7500;57.698;11.986;2022-12-08T04:45:45;2.57;;;1.60;;
14817;SDS011;7500;57.698;11.986;2022-12-08T04:48:12;2.37;;;1.33;;
14817;SDS011;7500;57.698;11.986;2022-12-08T04:50:40;1.90;;;1.53;;
14817;SDS011;7500;57.698;11.986;2022-12-08T04:53:08;3.43;;;1.90;;
14817;SDS011;7500;57.698;11.986;2022-12-08T04:55:37;1.83;;;1.30;;
14817;SDS011;7500;57.698;11.986;2022-12-08T04:58:05;2.03;;;1.40;;
14817;SDS011;7500;57.698;11.986;2022-12-08T05:00:32;2.53;;;1.57;;
14817;SDS011;7500;57.698;11.986;2022-12-08T05:03:01;2.27;;;1.50;;
14817;SDS011;7500;57.698;11.986;2022-12-08T05:05:28;2.73;;;1.70;;
14817;SDS011;7500;57.698;11.986;2022-12-08T05:07:54;2.13;;;1.30;;
14817;SDS011;7500;57.698;11.986;2022-12-08T05:10:21;3.87;;;1.40;;
14817;SDS011;7500;57.698;11.986;2022-12-08T05:12:56;2.00;;;1.20;;
14817;SDS011;7500;57.698;11.986;2022-12-08T05:15:23;2.87;;;1.90;;
14817;SDS011;7500;57.698;11.986;2022-12-08T05:17:50;3.03;;;1.70;;
14817;SDS011;7500;57.698;11.986;2022-12-08T05:20:19;3.70;;;1.80;;
14817;SDS011;7500;57.698;11.986;2022-12-08T05:22:46;2.00;;;1.47;;
14817;SDS011;7500;57.698;11.986;2022-12-08T05:25:13;4.20;;;1.90;;
14817;SDS011;7500;57.698;11.986;2022-12-08T05:27:54;1.73;;;1.53;;
14817;SDS011;7500;57.698;11.986;2022-12-08T05:30:20;3.53;;;2.03;;
14817;SDS011;7500;57.698;11.986;2022-12-08T05:32:47;2.67;;;1.63;;
14817;SDS011;7500;57.698;11.986;2022-12-08T05:35:14;1.93;;;1.50;;
14817;SDS011;7500;57.698;11.986;2022-12-08T05:37:43;3.53;;;1.90;;
14817;SDS011;7500;57.698;11.986;2022-12-08T05:40:10;3.20;;;1.70;;
14817;SDS011;7500;57.698;11.986;2022-12-08T05:42:37;4.10;;;1.80;;
14817;SDS011;7500;57.698;11.986;2022-12-08T05:45:04;3.60;;;1.80;;
14817;SDS011;7500;57.698;11.986;2022-12-08T05:47:32;4.43;;;2.00;;
14817;SDS011;7500;57.698;11.986;2022-12-08T05:49:58;3.37;;;1.73;;
14817;SDS011;7500;57.698;11.986;2022-12-08T05:52:25;2.93;;;1.60;;
14817;SDS011;7500;57.698;11.986;2022-12-08T05:54:54;4.83;;;1.70;;
14817;SDS011;7500;57.698;11.986;2022-12-08T05:57:21;2.93;;;2.43;;
14817;SDS011;7500;57.698;11.986;2022-12-08T05:59:47;3.50;;;1.70;;
14817;SDS011;7500;57.698;11.986;2022-12-08T06:02:14;2.17;;;1.53;;
14817;SDS011;7500;57.698;11.986;2022-12-08T06:04:41;5.33;;;2.07;;
14817;SDS011;7500;57.698;11.986;2022-12-08T06:07:08;2.83;;;1.63;;
14817;SDS011;7500;57.698;11.986;2022-12-08T06:09:35;3.33;;;1.87;;
14817;SDS011;7500;57.698;11.986;2022-12-08T06:12:04;3.27;;;2.10;;
14817;SDS011;7500;57.698;11.986;2022-12-08T06:14:31;2.73;;;1.77;;
14817;SDS011;7500;57.698;11.986;2022-12-08T06:16:58;4.47;;;1.90;;
14817;SDS011;7500;57.698;11.986;2022-12-08T06:19:25;2.80;;;1.87;;
14817;SDS011;7500;57.698;11.986;2022-12-08T06:21:52;2.60;;;2.07;;
14817;SDS011;7500;57.698;11.986;2022-12-08T06:24:19;2.47;;;1.77;;
14817;SDS011;7500;57.698;11.986;2022-12-08T06:26:46;3.70;;;1.83;;
14817;SDS011;7500;57.698;11.986;2022-12-08T06:29:14;2.10;;;1.90;;
14817;SDS011;7500;57.698;11.986;2022-12-08T06:31:41;4.30;;;2.03;;
14817;SDS011;7500;57.698;11.986;2022-12-08T06:34:08;5.60;;;2.43;;
14817;SDS011;7500;57.698;11.986;2022-12-08T06:36:35;4.93;;;2.30;;
14817;SDS011;7500;57.698;11.986;2022-12-08T06:39:02;3.40;;;2.40;;
14817;SDS011;7500;57.698;11.986;2022-12-08T06:41:29;5.70;;;2.40;;
14817;SDS011;7500;57.698;11.986;2022-12-08T06:43:56;4.13;;;2.47;;
14817;SDS011;7500;57.698;11.986;2022-12-08T06:46:25;4.43;;;2.60;;
14817;SDS011;7500;57.698;11.986;2022-12-08T06:48:52;3.93;;;2.67;;
14817;SDS011;7500;57.698;11.986;2022-12-08T06:51:20;4.73;;;2.93;;
14817;SDS011;7500;57.698;11.986;2022-12-08T06:53:48;4.73;;;2.83;;
14817;SDS011;7500;57.698;11.986;2022-12-08T06:56:15;6.10;;;3.00;;
14817;SDS011;7500;57.698;11.986;2022-12-08T06:58:44;5.07;;;2.80;;
14817;SDS011;7500;57.698;11.986;2022-12-08T07:01:11;5.27;;;2.80;;
14817;SDS011;7500;57.698;11.986;2022-12-08T07:03:40;5.37;;;3.70;;
14817;SDS011;7500;57.698;11.986;2022-12-08T07:06:10;6.40;;;3.67;;
14817;SDS011;7500;57.698;11.986;2022-12-08T07:08:40;6.40;;;2.93;;
14817;SDS011;7500;57.698;11.986;2022-12-08T07:11:07;7.80;;;3.40;;
14817;SDS011;7500;57.698;11.986;2022-12-08T07:13:34;9.87;;;3.90;;
14817;SDS011;7500;57.698;11.986;2022-12-08T07:16:03;4.23;;;2.70;;
14817;SDS011;7500;57.698;11.986;2022-12-08T07:18:31;9.83;;;3.47;;
14817;SDS011;7500;57.698;11.986;2022-12-08T07:21:02;5.57;;;3.23;;
14817;SDS011;7500;57.698;11.986;2022-12-08T07:23:30;5.93;;;2.93;;
14817;SDS011;7500;57.698;11.986;2022-12-08T07:25:59;8.73;;;3.23;;
14817;SDS011;7500;57.698;11.986;2022-12-08T07:28:28;5.10;;;2.87;;
14817;SDS011;7500;57.698;11.986;2022-12-08T07:30:56;6.10;;;3.30;;
14817;SDS011;7500;57.698;11.986;2022-12-08T07:33:23;7.37;;;3.00;;
14817;SDS011;7500;57.698;11.986;2022-12-08T07:35:53;8.83;;;2.93;;
14817;SDS011;7500;57.698;11.986;2022-12-08T07:38:22;5.33;;;2.70;;
14817;SDS011;7500;57.698;11.986;2022-12-08T07:40:49;5.13;;;3.07;;
14817;SDS011;7500;57.698;11.986;2022-12-08T07:43:17;7.73;;;2.60;;
14817;SDS011;7500;57.698;11.986;2022-12-08T07:45:44;8.50;;;3.03;;
14817;SDS011;7500;57.698;11.986;2022-12-08T07:48:11;4.27;;;2.50;;
14817;SDS011;7500;57.698;11.986;2022-12-08T07:50:38;3.77;;;2.20;;
14817;SDS011;7500;57.698;11.986;2022-12-08T07:53:05;4.67;;;2.40;;
14817;SDS011;7500;57.698;11.986;2022-12-08T07:55:37;4.07;;;2.43;;
14817;SDS011;7500;57.698;11.986;2022-12-08T07:58:04;3.23;;;2.10;;
14817;SDS011;7500;57.698;11.986;2022-12-08T08:00:31;3.53;;;2.20;;
14817;SDS011;7500;57.698;11.986;2022-12-08T08:02:58;3.53;;;1.97;;
14817;SDS011;7500;57.698;11.986;2022-12-08T08:05:25;4.37;;;2.10;;
14817;SDS011;7500;57.698;11.986;2022-12-08T08:07:52;3.93;;;1.80;;
14817;SDS011;7500;57.698;11.986;2022-12-08T08:10:19;4.27;;;1.93;;
14817;SDS011;7500;57.698;11.986;2022-12-08T08:12:48;4.43;;;1.90;;
14817;SDS011;7500;57.698;11.986;2022-12-08T08:15:14;7.73;;;2.00;;
14817;SDS011;7500;57.698;11.986;2022-12-08T08:17:43;3.37;;;1.90;;
14817;SDS011;7500;57.698;11.986;2022-12-08T08:20:10;2.80;;;1.80;;
14817;SDS011;7500;57.698;11.986;2022-12-08T08:22:38;3.93;;;1.80;;
14817;SDS011;7500;57.698;11.986;2022-12-08T08:25:05;7.53;;;1.80;;
14817;SDS011;7500;57.698;11.986;2022-12-08T08:27:32;3.20;;;1.70;;
14817;SDS011;7500;57.698;11.986;2022-12-08T08:30:01;3.40;;;2.10;;
14817;SDS011;7500;57.698;11.986;2022-12-08T08:32:30;5.80;;;2.13;;
14817;SDS011;7500;57.698;11.986;2022-12-08T08:34:58;3.23;;;1.90;;
14817;SDS011;7500;57.698;11.986;2022-12-08T08:37:25;3.13;;;1.60;;
14817;SDS011;7500;57.698;11.986;2022-12-08T08:39:52;3.23;;;1.83;;
14817;SDS011;7500;57.698;11.986;2022-12-08T08:42:20;3.53;;;1.90;;
14817;SDS011;7500;57.698;11.986;2022-12-08T08:44:47;5.27;;;1.73;;
14817;SDS011;7500;57.698;11.986;2022-12-08T08:47:15;3.40;;;2.00;;
14817;SDS011;7500;57.698;11.986;2022-12-08T08:49:42;4.97;;;2.10;;
14817;SDS011;7500;57.698;11.986;2022-12-08T08:52:09;7.33;;;2.37;;
14817;SDS011;7500;57.698;11.986;2022-12-08T08:54:36;2.10;;;1.80;;
14817;SDS011;7500;57.698;11.986;2022-12-08T08:57:03;3.20;;;1.63;;
14817;SDS011;7500;57.698;11.986;2022-12-08T08:59:30;3.70;;;1.90;;
14817;SDS011;7500;57.698;11.986;2022-12-08T09:01:57;4.03;;;1.87;;
14817;SDS011;7500;57.698;11.986;2022-12-08T09:04:25;5.30;;;2.07;;
14817;SDS011;7500;57.698;11.986;2022-12-08T09:06:52;2.57;;;1.83;;
14817;SDS011;7500;57.698;11.986;2022-12-08T09:09:19;5.70;;;2.10;;
14817;SDS011;7500;57.698;11.986;2022-12-08T09:11:46;4.33;;;2.30;;
14817;SDS011;7500;57.698;11.986;2022-12-08T09:14:13;3.60;;;1.87;;
14817;SDS011;7500;57.698;11.986;2022-12-08T09:16:40;8.23;;;2.57;;
14817;SDS011;7500;57.698;11.986;2022-12-08T09:19:07;9.77;;;2.70;;
14817;SDS011;7500;57.698;11.986;2022-12-08T09:21:36;6.43;;;2.20;;
14817;SDS011;7500;57.698;11.986;2022-12-08T09:24:04;5.20;;;2.03;;
14817;SDS011;7500;57.698;11.986;2022-12-08T09:26:32;5.77;;;2.20;;
14817;SDS011;7500;57.698;11.986;2022-12-08T09:28:59;3.73;;;1.90;;
14817;SDS011;7500;57.698;11.986;2022-12-08T09:31:26;5.63;;;1.70;;
14817;SDS011;7500;57.698;11.986;2022-12-08T09:33:53;4.20;;;1.97;;
14817;SDS011;7500;57.698;11.986;2022-12-08T09:36:20;4.10;;;2.13;;
14817;SDS011;7500;57.698;11.986;2022-12-08T09:38:48;4.80;;;2.03;;
14817;SDS011;7500;57.698;11.986;2022-12-08T09:41:19;4.17;;;1.77;;
14817;SDS011;7500;57.698;11.986;2022-12-08T09:43:54;3.43;;;1.70;;
14817;SDS011;7500;57.698;11.986;2022-12-08T09:46:31;4.50;;;1.90;;
14817;SDS011;7500;57.698;11.986;2022-12-08T09:49:00;5.80;;;1.90;;
14817;SDS011;7500;57.698;11.986;2022-12-08T09:51:30;4.37;;;2.03;;
14817;SDS011;7500;57.698;11.986;2022-12-08T09:54:02;3.77;;;1.90;;
14817;SDS011;7500;57.698;11.986;2022-12-08T09:56:34;3.47;;;2.00;;
14817;SDS011;7500;57.698;11.986;2022-12-08T09:59:02;5.97;;;2.50;;
14817;SDS011;7500;57.698;11.986;2022-12-08T10:01:37;2.90;;;1.80;;
14817;SDS011;7500;57.698;11.986;2022-12-08T10:04:08;3.23;;;1.97;;
14817;SDS011;7500;57.698;11.986;2022-12-08T10:06:46;7.17;;;1.80;;
14817;SDS011;7500;57.698;11.986;2022-12-08T10:09:25;5.73;;;2.10;;
14817;SDS011;7500;57.698;11.986;2022-12-08T10:11:58;5.83;;;2.03;;
14817;SDS011;7500;57.698;11.986;2022-12-08T10:14:30;3.03;;;2.00;;
14817;SDS011;7500;57.698;11.986;2022-12-08T10:17:02;5.07;;;2.00;;
14817;SDS011;7500;57.698;11.986;2022-12-08T10:19:39;3.80;;;2.30;;
14817;SDS011;7500;57.698;11.986;2022-12-08T10:22:11;4.00;;;2.17;;
14817;SDS011;7500;57.698;11.986;2022-12-08T10:24:47;5.97;;;1.93;;
14817;SDS011;7500;57.698;11.986;2022-12-08T10:27:27;4.77;;;2.10;;
14817;SDS011;7500;57.698;11.986;2022-12-08T10:29:54;7.30;;;2.17;;
14817;SDS011;7500;57.698;11.986;2022-12-08T10:32:22;5.40;;;1.93;;
14817;SDS011;7500;57.698;11.986;2022-12-08T10:35:00;9.90;;;1.97;;
14817;SDS011;7500;57.698;11.986;2022-12-08T10:37:29;2.40;;;1.80;;
14817;SDS011;7500;57.698;11.986;2022-12-08T10:40:02;4.00;;;1.33;;
14817;SDS011;7500;57.698;11.986;2022-12-08T10:42:33;1.73;;;0.90;;
14817;SDS011;7500;57.698;11.986;2022-12-08T10:45:10;2.27;;;0.97;;
14817;SDS011;7500;57.698;11.986;2022-12-08T10:47:47;2.83;;;1.20;;
14817;SDS011;7500;57.698;11.986;2022-12-08T10:50:23;1.43;;;0.83;;
14817;SDS011;7500;57.698;11.986;2022-12-08T10:52:56;3.47;;;0.53;;
14817;SDS011;7500;57.698;11.986;2022-12-08T10:55:26;2.50;;;0.73;;
14817;SDS011;7500;57.698;11.986;2022-12-08T10:57:54;5.27;;;0.70;;
14817;SDS011;7500;57.698;11.986;2022-12-08T11:00:23;3.97;;;0.60;;
14817;SDS011;7500;57.698;11.986;2022-12-08T11:02:53;1.63;;;0.67;;
14817;SDS011;7500;57.698;11.986;2022-12-08T11:05:22;3.00;;;0.80;;
14817;SDS011;7500;57.698;11.986;2022-12-08T11:07:53;3.80;;;0.90;;
14817;SDS011;7500;57.698;11.986;2022-12-08T11:10:26;4.40;;;1.20;;
14817;SDS011;7500;57.698;11.986;2022-12-08T11:12:58;5.23;;;1.60;;
14817;SDS011;7500;57.698;11.986;2022-12-08T11:15:30;5.50;;;1.60;;
14817;SDS011;7500;57.698;11.986;2022-12-08T11:18:05;3.63;;;1.43;;
14817;SDS011;7500;57.698;11.986;2022-12-08T11:20:38;2.00;;;1.00;;
14817;SDS011;7500;57.698;11.986;2022-12-08T11:23:16;9.17;;;2.20;;
14817;SDS011;7500;57.698;11.986;2022-12-08T11:25:47;2.83;;;1.30;;
14817;SDS011;7500;57.698;11.986;2022-12-08T11:28:17;3.60;;;1.30;;
14817;SDS011;7500;57.698;11.986;2022-12-08T11:30:50;5.10;;;1.73;;
14817;SDS011;7500;57.698;11.986;2022-12-08T11:33:22;3.03;;;0.90;;
14817;SDS011;7500;57.698;11.986;2022-12-08T11:35:51;2.90;;;1.00;;
14817;SDS011;7500;57.698;11.986;2022-12-08T11:38:22;2.93;;;0.70;;
14817;SDS011;7500;57.698;11.986;2022-12-08T11:40:53;3.53;;;0.90;;
14817;SDS011;7500;57.698;11.986;2022-12-08T11:43:25;4.13;;;0.93;;
14817;SDS011;7500;57.698;11.986;2022-12-08T11:45:57;3.60;;;0.77;;
14817;SDS011;7500;57.698;11.986;2022-12-08T11:48:26;2.80;;;0.90;;
14817;SDS011;7500;57.698;11.986;2022-12-08T11:51:00;3.33;;;0.73;;
14817;SDS011;7500;57.698;11.986;2022-12-08T11:53:33;1.17;;;0.60;;
14817;SDS011;7500;57.698;11.986;2022-12-08T11:56:07;3.90;;;0.50;;
14817;SDS011;7500;57.698;11.986;2022-12-08T11:58:43;4.80;;;0.80;;
14817;SDS011;7500;57.698;11.986;2022-12-08T12:01:16;4.93;;;0.97;;
14817;SDS011;7500;57.698;11.986;2022-12-08T12:03:46;4.77;;;0.70;;
14817;SDS011;7500;57.698;11.986;2022-12-08T12:06:28;3.43;;;0.67;;
14817;SDS011;7500;57.698;11.986;2022-12-08T12:09:08;2.00;;;0.57;;
14817;SDS011;7500;57.698;11.986;2022-12-08T12:11:46;8.27;;;1.07;;
14817;SDS011;7500;57.698;11.986;2022-12-08T12:17:39;3.93;;;1.33;;
14817;SDS011;7500;57.698;11.986;2022-12-08T12:20:12;4.77;;;1.00;;
14817;SDS011;7500;57.698;11.986;2022-12-08T12:22:45;4.33;;;0.80;;
14817;SDS011;7500;57.698;11.986;2022-12-08T12:25:16;4.90;;;0.50;;
14817;SDS011;7500;57.698;11.986;2022-12-08T12:27:47;6.33;;;0.97;;
14817;SDS011;7500;57.698;11.986;2022-12-08T12:30:19;3.50;;;0.90;;
14817;SDS011;7500;57.698;11.986;2022-12-08T12:32:50;8.23;;;2.13;;
14817;SDS011;7500;57.698;11.986;2022-12-08T12:35:21;5.60;;;1.13;;
14817;SDS011;7500;57.698;11.986;2022-12-08T12:37:57;1.83;;;0.60;;
14817;SDS011;7500;57.698;11.986;2022-12-08T12:40:27;3.80;;;0.90;;
14817;SDS011;7500;57.698;11.986;2022-12-08T12:43:12;3.57;;;0.83;;
14817;SDS011;7500;57.698;11.986;2022-12-08T12:48:54;2.53;;;0.60;;
14817;SDS011;7500;57.698;11.986;2022-12-08T12:52:00;2.40;;;0.63;;
14817;SDS011;7500;57.698;11.986;2022-12-08T12:54:27;5.37;;;1.00;;
14817;SDS011;7500;57.698;11.986;2022-12-08T12:56:54;3.53;;;1.17;;
14817;SDS011;7500;57.698;11.986;2022-12-08T12:59:42;7.40;;;0.97;;
14817;SDS011;7500;57.698;11.986;2022-12-08T13:02:17;4.33;;;0.80;;
14817;SDS011;7500;57.698;11.986;2022-12-08T13:04:51;5.63;;;1.20;;
14817;SDS011;7500;57.698;11.986;2022-12-08T13:07:21;3.43;;;0.93;;
14817;SDS011;7500;57.698;11.986;2022-12-08T13:09:54;7.33;;;1.10;;
14817;SDS011;7500;57.698;11.986;2022-12-08T13:12:24;3.17;;;0.90;;
14817;SDS011;7500;57.698;11.986;2022-12-08T13:14:54;5.30;;;1.00;;
14817;SDS011;7500;57.698;11.986;2022-12-08T13:17:27;3.87;;;1.00;;
14817;SDS011;7500;57.698;11.986;2022-12-08T13:19:57;6.47;;;1.60;;
14817;SDS011;7500;57.698;11.986;2022-12-08T13:22:45;4.63;;;1.23;;
14817;SDS011;7500;57.698;11.986;2022-12-08T13:28:20;4.17;;;1.43;;
14817;SDS011;7500;57.698;11.986;2022-12-08T13:30:50;17.93;;;1.73;;
14817;SDS011;7500;57.698;11.986;2022-12-08T13:33:21;2.07;;;1.07;;
14817;SDS011;7500;57.698;11.986;2022-12-08T13:35:59;3.50;;;1.27;;
14817;SDS011;7500;57.698;11.986;2022-12-08T13:38:31;2.93;;;1.13;;
14817;SDS011;7500;57.698;11.986;2022-12-08T13:41:00;4.57;;;1.33;;
14817;SDS011;7500;57.698;11.986;2022-12-08T13:43:34;4.80;;;1.33;;
14817;SDS011;7500;57.698;11.986;2022-12-08T13:46:06;7.30;;;1.50;;
14817;SDS011;7500;57.698;11.986;2022-12-08T13:48:41;3.20;;;1.27;;
14817;SDS011;7500;57.698;11.986;2022-12-08T13:51:13;6.43;;;1.20;;
14817;SDS011;7500;57.698;11.986;2022-12-08T13:53:43;5.57;;;1.27;;
14817;SDS011;7500;57.698;11.986;2022-12-08T13:56:14;11.80;;;1.53;;
14817;SDS011;7500;57.698;11.986;2022-12-08T13:58:42;8.57;;;1.43;;
14817;SDS011;7500;57.698;11.986;2022-12-08T14:01:12;5.23;;;1.43;;
14817;SDS011;7500;57.698;11.986;2022-12-08T14:03:46;4.73;;;1.27;;
14817;SDS011;7500;57.698;11.986;2022-12-08T14:06:18;5.37;;;1.20;;
14817;SDS011;7500;57.698;11.986;2022-12-08T14:08:51;6.77;;;1.57;;
14817;SDS011;7500;57.698;11.986;2022-12-08T14:11:24;5.50;;;1.20;;
14817;SDS011;7500;57.698;11.986;2022-12-08T14:14:00;4.10;;;1.40;;
14817;SDS011;7500;57.698;11.986;2022-12-08T14:16:35;5.87;;;1.67;;
14817;SDS011;7500;57.698;11.986;2022-12-08T14:19:13;5.97;;;1.50;;
14817;SDS011;7500;57.698;11.986;2022-12-08T14:21:46;5.60;;;1.50;;
14817;SDS011;7500;57.698;11.986;2022-12-08T14:24:13;6.60;;;1.50;;
14817;SDS011;7500;57.698;11.986;2022-12-08T14:26:40;4.87;;;1.50;;
14817;SDS011;7500;57.698;11.986;2022-12-08T14:29:10;4.97;;;1.50;;
14817;SDS011;7500;57.698;11.986;2022-12-08T14:31:56;9.70;;;1.47;;
14817;SDS011;7500;57.698;11.986;2022-12-08T14:34:23;7.77;;;1.60;;
14817;SDS011;7500;57.698;11.986;2022-12-08T14:36:50;3.00;;;1.43;;
14817;SDS011;7500;57.698;11.986;2022-12-08T14:39:18;3.87;;;1.10;;
14817;SDS011;7500;57.698;11.986;2022-12-08T14:41:57;3.77;;;1.30;;
14817;SDS011;7500;57.698;11.986;2022-12-08T14:44:24;7.73;;;1.87;;
14817;SDS011;7500;57.698;11.986;2022-12-08T14:47:06;2.53;;;1.30;;
14817;SDS011;7500;57.698;11.986;2022-12-08T14:49:35;5.00;;;1.57;;
14817;SDS011;7500;57.698;11.986;2022-12-08T14:52:07;6.23;;;1.40;;
14817;SDS011;7500;57.698;11.986;2022-12-08T14:54:36;2.07;;;1.03;;
14817;SDS011;7500;57.698;11.986;2022-12-08T14:57:08;4.53;;;1.50;;
14817;SDS011;7500;57.698;11.986;2022-12-08T14:59:38;3.33;;;1.50;;
14817;SDS011;7500;57.698;11.986;2022-12-08T15:02:12;9.87;;;1.87;;
14817;SDS011;7500;57.698;11.986;2022-12-08T15:04:53;3.83;;;1.50;;
14817;SDS011;7500;57.698;11.986;2022-12-08T15:07:24;5.00;;;1.17;;
14817;SDS011;7500;57.698;11.986;2022-12-08T15:10:09;5.43;;;1.30;;
14817;SDS011;7500;57.698;11.986;2022-12-08T15:13:01;1.97;;;1.13;;
14817;SDS011;7500;57.698;11.986;2022-12-08T15:15:31;4.17;;;1.40;;
14817;SDS011;7500;57.698;11.986;2022-12-08T15:18:13;5.23;;;1.40;;
14817;SDS011;7500;57.698;11.986;2022-12-08T15:20:42;4.27;;;1.20;;